FIN3AW EFHK-EDDB
Flight info
| Callsign | FIN3AW |
|---|---|
| Flight time | 1h 51m |
| Altitude | 36000 |
| Route | VALOX DCT DANKA DCT ROSAX DCT LEMSI DCT PIMEX P739 DEREX DCT GOSOT Z131 BANUB DCT CIPPI DCT USEDU/N0448F370 Z14 BEKBA T280 KETAP KETAP1R |
| Aircraft | A321/M-SDE1E2E3FGIJ1M1RWXYZ/LB1 |
Departure
| Time | 2026-05-05 12:28 |
|---|---|
| Airport | Helsinki Vantaa Airport (EFHK) |
Arrival
| Time | 2026-05-05 14:19 |
|---|---|
| Airport | Berlin Brandenburg Airport (EDDB) |
| Time | Latitude | Longitude | Altitude | Speed | Heading |
|---|---|---|---|---|---|
| 2026-05-05 11:59 | 60.31978 | 24.96900 | 164 ft | 0 kts | 218° |
| 2026-05-05 12:21 | 60.31995 | 24.96931 | 163 ft | 4 kts | 236° |
| 2026-05-05 12:21 | 60.32005 | 24.96978 | 163 ft | 4 kts | 274° |
| 2026-05-05 12:22 | 60.31996 | 24.97017 | 163 ft | 2 kts | 331° |
| 2026-05-05 12:22 | 60.31995 | 24.97020 | 163 ft | 0 kts | 333° |
| 2026-05-05 12:24 | 60.32012 | 24.97002 | 163 ft | 6 kts | 333° |
| 2026-05-05 12:24 | 60.32068 | 24.96942 | 163 ft | 12 kts | 331° |
| 2026-05-05 12:24 | 60.32149 | 24.96955 | 163 ft | 14 kts | 34° |
| 2026-05-05 12:25 | 60.32245 | 24.96910 | 163 ft | 15 kts | 332° |
| 2026-05-05 12:25 | 60.32330 | 24.96824 | 165 ft | 10 kts | 334° |
| 2026-05-05 12:25 | 60.32382 | 24.96772 | 168 ft | 5 kts | 333° |
| 2026-05-05 12:25 | 60.32388 | 24.96766 | 168 ft | 0 kts | 332° |
| 2026-05-05 12:26 | 60.32397 | 24.96756 | 169 ft | 5 kts | 333° |
| 2026-05-05 12:26 | 60.32451 | 24.96700 | 156 ft | 11 kts | 333° |
| 2026-05-05 12:26 | 60.32481 | 24.96618 | 175 ft | 6 kts | 246° |
| 2026-05-05 12:27 | 60.32455 | 24.96554 | 176 ft | 10 kts | 228° |
| 2026-05-05 12:27 | 60.32296 | 24.96205 | 177 ft | 68 kts | 228° |
| 2026-05-05 12:27 | 60.31839 | 24.95197 | 175 ft | 127 kts | 227° |
| 2026-05-05 12:27 | 60.31154 | 24.93719 | 462 ft | 147 kts | 231° |
| 2026-05-05 12:28 | 60.30436 | 24.92290 | 1220 ft | 147 kts | 224° |
| 2026-05-05 12:28 | 60.29549 | 24.91107 | 1698 ft | 162 kts | 215° |
| 2026-05-05 12:28 | 60.28497 | 24.89915 | 1973 ft | 185 kts | 214° |
| 2026-05-05 12:28 | 60.27311 | 24.88584 | 2231 ft | 207 kts | 213° |
| 2026-05-05 12:29 | 60.25975 | 24.87095 | 2554 ft | 229 kts | 213° |
| 2026-05-05 12:29 | 60.24570 | 24.85551 | 3373 ft | 231 kts | 213° |
| 2026-05-05 12:29 | 60.23104 | 24.84187 | 4233 ft | 237 kts | 199° |
| 2026-05-05 12:29 | 60.21488 | 24.83391 | 5084 ft | 240 kts | 197° |
| 2026-05-05 12:30 | 60.19881 | 24.82657 | 6004 ft | 239 kts | 198° |
| 2026-05-05 12:30 | 60.18256 | 24.81929 | 6884 ft | 237 kts | 200° |
| 2026-05-05 12:30 | 60.16655 | 24.81212 | 7836 ft | 234 kts | 201° |
| 2026-05-05 12:30 | 60.15107 | 24.80297 | 8713 ft | 227 kts | 212° |
| 2026-05-05 12:31 | 60.13764 | 24.78611 | 9261 ft | 233 kts | 225° |
| 2026-05-05 12:31 | 60.12487 | 24.76504 | 9884 ft | 240 kts | 224° |
| 2026-05-05 12:31 | 60.11157 | 24.74323 | 10161 ft | 260 kts | 224° |
| 2026-05-05 12:31 | 60.09689 | 24.71926 | 10331 ft | 282 kts | 224° |
| 2026-05-05 12:32 | 60.08137 | 24.69417 | 10843 ft | 290 kts | 223° |
| 2026-05-05 12:32 | 60.06552 | 24.66875 | 11515 ft | 293 kts | 223° |
| 2026-05-05 12:32 | 60.04949 | 24.64309 | 12214 ft | 296 kts | 223° |
| 2026-05-05 12:32 | 60.03333 | 24.61723 | 12915 ft | 298 kts | 224° |
| 2026-05-05 12:33 | 60.01718 | 24.59137 | 13589 ft | 301 kts | 224° |
| 2026-05-05 12:33 | 60.00071 | 24.56497 | 14189 ft | 304 kts | 224° |
| 2026-05-05 12:33 | 59.98419 | 24.53855 | 14875 ft | 305 kts | 224° |
| 2026-05-05 12:33 | 59.96755 | 24.51204 | 15490 ft | 307 kts | 224° |
| 2026-05-05 12:34 | 59.95078 | 24.48533 | 16072 ft | 309 kts | 224° |
| 2026-05-05 12:34 | 59.93400 | 24.45861 | 16561 ft | 313 kts | 224° |
| 2026-05-05 12:34 | 59.91682 | 24.43125 | 17074 ft | 317 kts | 224° |
| 2026-05-05 12:34 | 59.89941 | 24.40356 | 17621 ft | 320 kts | 224° |
| 2026-05-05 12:35 | 59.88185 | 24.37568 | 18149 ft | 323 kts | 224° |
| 2026-05-05 12:35 | 59.86431 | 24.34786 | 18617 ft | 325 kts | 224° |
| 2026-05-05 12:35 | 59.84653 | 24.31973 | 19113 ft | 327 kts | 224° |
| 2026-05-05 12:35 | 59.82863 | 24.29146 | 19589 ft | 329 kts | 224° |
| 2026-05-05 12:36 | 59.81089 | 24.26347 | 20033 ft | 330 kts | 224° |
| 2026-05-05 12:36 | 59.79283 | 24.23500 | 20496 ft | 332 kts | 224° |
| 2026-05-05 12:36 | 59.77468 | 24.20642 | 20925 ft | 333 kts | 224° |
| 2026-05-05 12:36 | 59.75645 | 24.17779 | 21354 ft | 335 kts | 224° |
| 2026-05-05 12:37 | 59.73828 | 24.14931 | 21787 ft | 336 kts | 224° |
| 2026-05-05 12:37 | 59.71950 | 24.12045 | 22220 ft | 339 kts | 223° |
| 2026-05-05 12:37 | 59.70065 | 24.09308 | 22628 ft | 341 kts | 221° |
| 2026-05-05 12:37 | 59.68118 | 24.06573 | 22997 ft | 344 kts | 221° |
| 2026-05-05 12:38 | 59.66149 | 24.03842 | 23413 ft | 346 kts | 221° |
| 2026-05-05 12:38 | 59.64174 | 24.01108 | 23773 ft | 347 kts | 221° |
| 2026-05-05 12:38 | 59.62188 | 23.98346 | 24121 ft | 349 kts | 221° |
| 2026-05-05 12:38 | 59.60197 | 23.95560 | 24463 ft | 351 kts | 221° |
| 2026-05-05 12:39 | 59.58205 | 23.92759 | 24806 ft | 353 kts | 221° |
| 2026-05-05 12:39 | 59.56203 | 23.89935 | 25155 ft | 355 kts | 221° |
| 2026-05-05 12:39 | 59.54213 | 23.87133 | 25495 ft | 357 kts | 221° |
| 2026-05-05 12:39 | 59.52188 | 23.84293 | 25834 ft | 359 kts | 221° |
| 2026-05-05 12:40 | 59.50144 | 23.81435 | 26181 ft | 361 kts | 221° |
| 2026-05-05 12:40 | 59.48105 | 23.78521 | 26510 ft | 360 kts | 224° |
| 2026-05-05 12:40 | 59.46313 | 23.75112 | 26815 ft | 358 kts | 231° |
| 2026-05-05 12:40 | 59.44627 | 23.71478 | 27123 ft | 360 kts | 231° |
| 2026-05-05 12:41 | 59.42928 | 23.67830 | 27457 ft | 362 kts | 231° |
| 2026-05-05 12:41 | 59.41240 | 23.64211 | 27782 ft | 364 kts | 231° |
| 2026-05-05 12:41 | 59.39522 | 23.60529 | 28097 ft | 366 kts | 231° |
| 2026-05-05 12:41 | 59.37795 | 23.56842 | 28411 ft | 368 kts | 231° |
| 2026-05-05 12:42 | 59.36056 | 23.53144 | 28712 ft | 370 kts | 231° |
| 2026-05-05 12:42 | 59.34302 | 23.49432 | 29011 ft | 372 kts | 231° |
| 2026-05-05 12:42 | 59.32540 | 23.45708 | 29308 ft | 373 kts | 231° |
| 2026-05-05 12:42 | 59.30766 | 23.41963 | 29587 ft | 375 kts | 231° |
| 2026-05-05 12:43 | 59.28985 | 23.38207 | 29851 ft | 377 kts | 231° |
| 2026-05-05 12:43 | 59.27216 | 23.34477 | 30066 ft | 379 kts | 231° |
| 2026-05-05 12:43 | 59.25417 | 23.30675 | 30273 ft | 380 kts | 231° |
| 2026-05-05 12:43 | 59.23618 | 23.26874 | 30424 ft | 382 kts | 231° |
| 2026-05-05 12:44 | 59.21799 | 23.23044 | 30573 ft | 385 kts | 230° |
| 2026-05-05 12:44 | 59.19966 | 23.19204 | 30794 ft | 386 kts | 230° |
| 2026-05-05 12:44 | 59.18156 | 23.15432 | 31076 ft | 385 kts | 230° |
| 2026-05-05 12:44 | 59.16324 | 23.11618 | 31355 ft | 385 kts | 230° |
| 2026-05-05 12:45 | 59.14494 | 23.07805 | 31640 ft | 384 kts | 230° |
| 2026-05-05 12:45 | 59.12668 | 23.04003 | 31918 ft | 384 kts | 230° |
| 2026-05-05 12:45 | 59.10840 | 23.00203 | 32197 ft | 383 kts | 230° |
| 2026-05-05 12:45 | 59.09020 | 22.96420 | 32475 ft | 383 kts | 230° |
| 2026-05-05 12:46 | 59.07221 | 22.92689 | 32750 ft | 382 kts | 230° |
| 2026-05-05 12:46 | 59.05398 | 22.88928 | 33113 ft | 381 kts | 230° |
| 2026-05-05 12:46 | 59.03575 | 22.85177 | 33432 ft | 380 kts | 230° |
| 2026-05-05 12:46 | 59.01762 | 22.81449 | 33661 ft | 379 kts | 230° |
| 2026-05-05 12:47 | 58.99950 | 22.77717 | 33864 ft | 380 kts | 230° |
| 2026-05-05 12:47 | 58.98151 | 22.74014 | 34051 ft | 381 kts | 230° |
| 2026-05-05 12:47 | 58.96330 | 22.70269 | 34229 ft | 382 kts | 230° |
| 2026-05-05 12:47 | 58.94496 | 22.66504 | 34404 ft | 383 kts | 230° |
| 2026-05-05 12:48 | 58.92662 | 22.62747 | 34578 ft | 384 kts | 230° |
| 2026-05-05 12:48 | 58.90822 | 22.58985 | 34758 ft | 385 kts | 230° |
| 2026-05-05 12:48 | 58.89000 | 22.55274 | 34914 ft | 385 kts | 230° |
| 2026-05-05 12:48 | 58.87147 | 22.51514 | 35071 ft | 386 kts | 230° |
| 2026-05-05 12:49 | 58.85287 | 22.47742 | 35242 ft | 387 kts | 230° |
| 2026-05-05 12:49 | 58.83423 | 22.43965 | 35405 ft | 388 kts | 230° |
| 2026-05-05 12:49 | 58.81558 | 22.40195 | 35562 ft | 389 kts | 230° |
| 2026-05-05 12:49 | 58.79689 | 22.36421 | 35702 ft | 389 kts | 229° |
| 2026-05-05 12:50 | 58.77816 | 22.32651 | 35829 ft | 390 kts | 229° |
| 2026-05-05 12:50 | 58.75939 | 22.28871 | 35874 ft | 389 kts | 229° |
| 2026-05-05 12:50 | 58.72225 | 22.21398 | 35868 ft | 388 kts | 229° |
| 2026-05-05 12:51 | 58.68480 | 22.13891 | 35874 ft | 388 kts | 229° |
| 2026-05-05 12:51 | 58.64729 | 22.06401 | 35874 ft | 388 kts | 229° |
| 2026-05-05 12:52 | 58.60997 | 21.98986 | 35876 ft | 388 kts | 229° |
| 2026-05-05 12:52 | 58.57238 | 21.91541 | 35844 ft | 388 kts | 229° |
| 2026-05-05 12:53 | 58.53475 | 21.84099 | 35857 ft | 389 kts | 229° |
| 2026-05-05 12:53 | 58.49721 | 21.76690 | 35864 ft | 389 kts | 229° |
| 2026-05-05 12:54 | 58.44058 | 21.65586 | 35884 ft | 390 kts | 229° |
| 2026-05-05 12:55 | 58.40895 | 21.59412 | 35902 ft | 390 kts | 229° |
| 2026-05-05 12:55 | 58.37101 | 21.52019 | 35899 ft | 389 kts | 229° |
| 2026-05-05 12:56 | 58.33323 | 21.44681 | 35870 ft | 389 kts | 229° |
| 2026-05-05 12:56 | 58.29529 | 21.37323 | 35875 ft | 390 kts | 229° |
| 2026-05-05 12:57 | 58.25714 | 21.29961 | 35886 ft | 390 kts | 229° |
| 2026-05-05 12:57 | 58.21924 | 21.22666 | 35888 ft | 390 kts | 228° |
| 2026-05-05 12:58 | 58.18087 | 21.15345 | 35891 ft | 390 kts | 228° |
| 2026-05-05 12:58 | 58.14236 | 21.08074 | 35893 ft | 390 kts | 228° |
| 2026-05-05 12:59 | 58.10404 | 21.00852 | 35861 ft | 391 kts | 228° |
| 2026-05-05 12:59 | 58.06527 | 20.93568 | 35870 ft | 392 kts | 227° |
| 2026-05-05 13:00 | 58.00715 | 20.82689 | 35880 ft | 392 kts | 227° |
| 2026-05-05 13:01 | 57.92957 | 20.68234 | 35894 ft | 393 kts | 227° |
| 2026-05-05 13:01 | 57.89088 | 20.61064 | 35872 ft | 393 kts | 227° |
| 2026-05-05 13:02 | 57.85176 | 20.53853 | 35880 ft | 393 kts | 227° |
| 2026-05-05 13:02 | 57.81258 | 20.46649 | 35887 ft | 394 kts | 227° |
| 2026-05-05 13:03 | 57.77365 | 20.39504 | 35920 ft | 394 kts | 227° |
| 2026-05-05 13:03 | 57.73440 | 20.32318 | 35917 ft | 393 kts | 227° |
| 2026-05-05 13:04 | 57.69522 | 20.25172 | 35914 ft | 393 kts | 227° |
| 2026-05-05 13:04 | 57.65650 | 20.18021 | 35879 ft | 393 kts | 229° |
| 2026-05-05 13:05 | 57.62007 | 20.10409 | 35887 ft | 393 kts | 232° |
| 2026-05-05 13:05 | 57.58445 | 20.02679 | 35888 ft | 393 kts | 231° |
| 2026-05-05 13:06 | 57.54820 | 19.95009 | 35895 ft | 393 kts | 231° |
| 2026-05-05 13:06 | 57.51178 | 19.87469 | 35901 ft | 394 kts | 230° |
| 2026-05-05 13:07 | 57.47503 | 19.79903 | 35900 ft | 394 kts | 230° |
| 2026-05-05 13:07 | 57.43825 | 19.72345 | 35873 ft | 394 kts | 230° |
| 2026-05-05 13:08 | 57.40152 | 19.64804 | 35886 ft | 394 kts | 230° |
| 2026-05-05 13:08 | 57.36468 | 19.57273 | 35894 ft | 394 kts | 230° |
| 2026-05-05 13:09 | 57.32803 | 19.49789 | 35898 ft | 394 kts | 230° |
| 2026-05-05 13:09 | 57.29110 | 19.42272 | 35901 ft | 394 kts | 230° |
| 2026-05-05 13:10 | 57.25426 | 19.34826 | 35922 ft | 394 kts | 230° |
| 2026-05-05 13:10 | 57.21720 | 19.27355 | 35912 ft | 394 kts | 230° |
| 2026-05-05 13:11 | 57.18007 | 19.19866 | 35908 ft | 395 kts | 230° |
| 2026-05-05 13:11 | 57.14294 | 19.12399 | 35906 ft | 395 kts | 230° |
| 2026-05-05 13:12 | 57.10588 | 19.04993 | 35914 ft | 395 kts | 230° |
| 2026-05-05 13:12 | 57.06851 | 18.97560 | 35908 ft | 395 kts | 230° |
| 2026-05-05 13:13 | 57.03112 | 18.90128 | 35882 ft | 395 kts | 230° |
| 2026-05-05 13:13 | 56.99398 | 18.82768 | 35895 ft | 395 kts | 230° |
| 2026-05-05 13:14 | 56.95661 | 18.75368 | 35900 ft | 395 kts | 230° |
| 2026-05-05 13:14 | 56.91913 | 18.67989 | 35908 ft | 395 kts | 230° |
| 2026-05-05 13:15 | 56.88161 | 18.60634 | 35907 ft | 395 kts | 230° |
| 2026-05-05 13:15 | 56.84422 | 18.53340 | 35914 ft | 395 kts | 230° |
| 2026-05-05 13:16 | 56.80661 | 18.45992 | 35888 ft | 395 kts | 229° |
| 2026-05-05 13:16 | 56.76925 | 18.38693 | 35919 ft | 395 kts | 229° |
| 2026-05-05 13:17 | 56.73144 | 18.31362 | 35903 ft | 397 kts | 229° |
| 2026-05-05 13:17 | 56.69372 | 18.24096 | 35919 ft | 397 kts | 229° |
| 2026-05-05 13:18 | 56.65566 | 18.16771 | 35911 ft | 397 kts | 229° |
| 2026-05-05 13:18 | 56.61782 | 18.09512 | 35913 ft | 397 kts | 229° |
| 2026-05-05 13:19 | 56.57972 | 18.02214 | 35891 ft | 397 kts | 229° |
| 2026-05-05 13:19 | 56.54162 | 17.94931 | 35901 ft | 398 kts | 229° |
| 2026-05-05 13:20 | 56.50363 | 17.87705 | 35902 ft | 398 kts | 229° |
| 2026-05-05 13:20 | 56.46523 | 17.80442 | 35906 ft | 398 kts | 229° |
| 2026-05-05 13:21 | 56.42681 | 17.73186 | 35910 ft | 398 kts | 229° |
| 2026-05-05 13:21 | 56.38870 | 17.65993 | 35884 ft | 398 kts | 229° |
| 2026-05-05 13:22 | 56.35025 | 17.58769 | 35893 ft | 398 kts | 228° |
| 2026-05-05 13:22 | 56.31183 | 17.51574 | 35902 ft | 398 kts | 228° |
| 2026-05-05 13:23 | 56.27335 | 17.44395 | 35906 ft | 398 kts | 228° |
| 2026-05-05 13:23 | 56.23500 | 17.37249 | 35918 ft | 398 kts | 229° |
| 2026-05-05 13:24 | 56.19641 | 17.30071 | 35915 ft | 399 kts | 228° |
| 2026-05-05 13:24 | 56.15767 | 17.22916 | 35895 ft | 399 kts | 228° |
| 2026-05-05 13:25 | 56.11914 | 17.15817 | 35899 ft | 400 kts | 228° |
| 2026-05-05 13:25 | 56.08023 | 17.08667 | 35907 ft | 400 kts | 228° |
| 2026-05-05 13:26 | 56.04160 | 17.01578 | 35908 ft | 400 kts | 228° |
| 2026-05-05 13:26 | 56.00263 | 16.94454 | 35910 ft | 400 kts | 228° |
| 2026-05-05 13:27 | 55.96363 | 16.87352 | 35917 ft | 400 kts | 228° |
| 2026-05-05 13:27 | 55.92487 | 16.80315 | 35895 ft | 400 kts | 227° |
| 2026-05-05 13:28 | 55.88586 | 16.73255 | 35906 ft | 399 kts | 227° |
| 2026-05-05 13:28 | 55.84677 | 16.66206 | 35907 ft | 399 kts | 227° |
| 2026-05-05 13:29 | 55.80768 | 16.59172 | 35917 ft | 399 kts | 227° |
| 2026-05-05 13:29 | 55.76853 | 16.52152 | 35912 ft | 399 kts | 227° |
| 2026-05-05 13:30 | 55.72959 | 16.45177 | 35889 ft | 399 kts | 227° |
| 2026-05-05 13:30 | 55.69043 | 16.38177 | 35902 ft | 399 kts | 227° |
| 2026-05-05 13:31 | 55.65118 | 16.31203 | 35917 ft | 399 kts | 227° |
| 2026-05-05 13:31 | 55.61185 | 16.24234 | 35923 ft | 399 kts | 227° |
| 2026-05-05 13:32 | 55.57270 | 16.17329 | 35925 ft | 399 kts | 227° |
| 2026-05-05 13:32 | 55.53326 | 16.10382 | 35932 ft | 400 kts | 227° |
| 2026-05-05 13:33 | 55.49404 | 16.03492 | 35918 ft | 400 kts | 227° |
| 2026-05-05 13:33 | 55.45456 | 15.96571 | 35930 ft | 400 kts | 227° |
| 2026-05-05 13:34 | 55.41497 | 15.89653 | 35933 ft | 400 kts | 227° |
| 2026-05-05 13:34 | 55.37538 | 15.82763 | 35939 ft | 400 kts | 227° |
| 2026-05-05 13:35 | 55.33581 | 15.75902 | 35943 ft | 401 kts | 227° |
| 2026-05-05 13:35 | 55.29609 | 15.69023 | 35942 ft | 400 kts | 227° |
| 2026-05-05 13:36 | 55.25658 | 15.62193 | 35925 ft | 400 kts | 227° |
| 2026-05-05 13:36 | 55.21682 | 15.55343 | 35937 ft | 401 kts | 226° |
| 2026-05-05 13:37 | 55.17710 | 15.48541 | 35937 ft | 401 kts | 226° |
| 2026-05-05 13:37 | 55.13709 | 15.41699 | 35940 ft | 402 kts | 226° |
| 2026-05-05 13:38 | 55.09707 | 15.34865 | 35946 ft | 402 kts | 226° |
| 2026-05-05 13:38 | 55.05686 | 15.28045 | 35950 ft | 402 kts | 226° |
| 2026-05-05 13:39 | 55.01691 | 15.21275 | 35947 ft | 402 kts | 226° |
| 2026-05-05 13:39 | 54.97669 | 15.14479 | 35947 ft | 402 kts | 226° |
| 2026-05-05 13:40 | 54.93670 | 15.07739 | 35942 ft | 402 kts | 226° |
| 2026-05-05 13:40 | 54.89632 | 15.00948 | 35946 ft | 402 kts | 226° |
| 2026-05-05 13:41 | 54.85597 | 14.94187 | 35933 ft | 403 kts | 226° |
| 2026-05-05 13:41 | 54.81561 | 14.87439 | 35942 ft | 402 kts | 226° |
| 2026-05-05 13:42 | 54.77542 | 14.80753 | 35949 ft | 402 kts | 226° |
| 2026-05-05 13:42 | 54.73465 | 14.74076 | 35961 ft | 402 kts | 225° |
| 2026-05-05 13:43 | 54.69418 | 14.67469 | 35951 ft | 402 kts | 225° |
| 2026-05-05 13:43 | 54.65352 | 14.60823 | 35944 ft | 402 kts | 226° |
| 2026-05-05 13:44 | 54.61977 | 14.55304 | 35923 ft | 401 kts | 226° |
| 2026-05-05 13:44 | 54.57917 | 14.48685 | 35925 ft | 401 kts | 226° |
| 2026-05-05 13:45 | 54.53856 | 14.42086 | 35930 ft | 401 kts | 226° |
| 2026-05-05 13:45 | 54.49815 | 14.35554 | 35931 ft | 401 kts | 225° |
| 2026-05-05 13:46 | 54.45524 | 14.29368 | 35930 ft | 405 kts | 214° |
| 2026-05-05 13:46 | 54.40444 | 14.25061 | 35904 ft | 407 kts | 210° |
| 2026-05-05 13:47 | 54.35342 | 14.20931 | 35925 ft | 407 kts | 210° |
| 2026-05-05 13:47 | 54.30213 | 14.16775 | 35938 ft | 407 kts | 210° |
| 2026-05-05 13:48 | 54.25065 | 14.12636 | 35172 ft | 412 kts | 210° |
| 2026-05-05 13:48 | 54.22462 | 14.10563 | 34426 ft | 413 kts | 208° |
| 2026-05-05 13:48 | 54.19737 | 14.08949 | 33802 ft | 414 kts | 201° |
| 2026-05-05 13:49 | 54.17018 | 14.07601 | 33179 ft | 409 kts | 202° |
| 2026-05-05 13:49 | 54.14292 | 14.06240 | 32633 ft | 404 kts | 202° |
| 2026-05-05 13:49 | 54.11602 | 14.04890 | 32078 ft | 400 kts | 202° |
| 2026-05-05 13:49 | 54.08953 | 14.03550 | 31530 ft | 395 kts | 203° |
| 2026-05-05 13:50 | 54.06329 | 14.02215 | 30997 ft | 391 kts | 203° |
| 2026-05-05 13:50 | 54.03767 | 14.00917 | 30470 ft | 387 kts | 203° |
| 2026-05-05 13:50 | 54.01193 | 13.99621 | 29943 ft | 383 kts | 203° |
| 2026-05-05 13:50 | 53.98651 | 13.98343 | 29381 ft | 378 kts | 203° |
| 2026-05-05 13:51 | 53.96139 | 13.97115 | 28877 ft | 374 kts | 200° |
| 2026-05-05 13:51 | 53.93561 | 13.96426 | 28342 ft | 375 kts | 191° |
| 2026-05-05 13:51 | 53.90977 | 13.96103 | 27881 ft | 368 kts | 191° |
| 2026-05-05 13:51 | 53.88472 | 13.95793 | 27404 ft | 362 kts | 191° |
| 2026-05-05 13:52 | 53.85975 | 13.95485 | 26940 ft | 355 kts | 191° |
| 2026-05-05 13:52 | 53.83526 | 13.95183 | 26489 ft | 350 kts | 191° |
| 2026-05-05 13:52 | 53.81112 | 13.94881 | 26047 ft | 346 kts | 191° |
| 2026-05-05 13:52 | 53.78718 | 13.94577 | 25619 ft | 344 kts | 191° |
| 2026-05-05 13:53 | 53.76361 | 13.94275 | 25200 ft | 343 kts | 191° |
| 2026-05-05 13:53 | 53.73986 | 13.93972 | 24787 ft | 341 kts | 191° |
| 2026-05-05 13:53 | 53.71622 | 13.93668 | 24365 ft | 339 kts | 191° |
| 2026-05-05 13:53 | 53.69272 | 13.93364 | 23951 ft | 338 kts | 190° |
| 2026-05-05 13:54 | 53.66927 | 13.93065 | 23522 ft | 336 kts | 190° |
| 2026-05-05 13:54 | 53.64591 | 13.92772 | 23067 ft | 335 kts | 190° |
| 2026-05-05 13:54 | 53.62293 | 13.92317 | 22641 ft | 329 kts | 197° |
| 2026-05-05 13:54 | 53.60108 | 13.91302 | 22237 ft | 325 kts | 202° |
| 2026-05-05 13:55 | 53.57977 | 13.90205 | 21830 ft | 323 kts | 202° |
| 2026-05-05 13:55 | 53.55819 | 13.89095 | 21414 ft | 322 kts | 201° |
| 2026-05-05 13:55 | 53.53674 | 13.87993 | 20999 ft | 321 kts | 201° |
| 2026-05-05 13:55 | 53.51541 | 13.86900 | 20579 ft | 320 kts | 201° |
| 2026-05-05 13:56 | 53.49417 | 13.85817 | 20166 ft | 318 kts | 201° |
| 2026-05-05 13:56 | 53.47299 | 13.84740 | 19749 ft | 317 kts | 201° |
| 2026-05-05 13:56 | 53.45194 | 13.83670 | 19339 ft | 316 kts | 201° |
| 2026-05-05 13:56 | 53.43116 | 13.82615 | 18922 ft | 315 kts | 201° |
| 2026-05-05 13:57 | 53.41025 | 13.81558 | 18519 ft | 314 kts | 201° |
| 2026-05-05 13:57 | 53.38940 | 13.80505 | 18098 ft | 312 kts | 201° |
| 2026-05-05 13:57 | 53.36861 | 13.79451 | 17663 ft | 310 kts | 201° |
| 2026-05-05 13:57 | 53.34797 | 13.78402 | 17262 ft | 308 kts | 201° |
| 2026-05-05 13:58 | 53.32769 | 13.77375 | 16867 ft | 307 kts | 201° |
| 2026-05-05 13:58 | 53.30730 | 13.76343 | 16480 ft | 305 kts | 201° |
| 2026-05-05 13:58 | 53.28705 | 13.75318 | 16091 ft | 303 kts | 201° |
| 2026-05-05 13:58 | 53.26694 | 13.74299 | 15711 ft | 301 kts | 201° |
| 2026-05-05 13:59 | 53.22711 | 13.72290 | 14945 ft | 296 kts | 200° |
| 2026-05-05 13:59 | 53.20764 | 13.71318 | 14579 ft | 295 kts | 200° |
| 2026-05-05 14:00 | 53.16844 | 13.69359 | 13833 ft | 293 kts | 199° |
| 2026-05-05 14:00 | 53.14893 | 13.68378 | 13428 ft | 291 kts | 200° |
| 2026-05-05 14:00 | 53.12925 | 13.67553 | 13041 ft | 292 kts | 192° |
| 2026-05-05 14:00 | 53.10897 | 13.67276 | 12655 ft | 292 kts | 186° |
| 2026-05-05 14:01 | 53.08864 | 13.67080 | 12260 ft | 292 kts | 186° |
| 2026-05-05 14:01 | 53.06864 | 13.66885 | 11870 ft | 290 kts | 186° |
| 2026-05-05 14:01 | 53.04843 | 13.66688 | 11476 ft | 289 kts | 186° |
| 2026-05-05 14:01 | 53.02824 | 13.66201 | 11074 ft | 299 kts | 201° |
| 2026-05-05 14:02 | 53.00862 | 13.64947 | 10686 ft | 304 kts | 205° |
| 2026-05-05 14:02 | 52.98908 | 13.63582 | 10294 ft | 304 kts | 205° |
| 2026-05-05 14:02 | 52.97000 | 13.62240 | 9912 ft | 299 kts | 205° |
| 2026-05-05 14:02 | 52.95126 | 13.60921 | 9842 ft | 285 kts | 205° |
| 2026-05-05 14:03 | 52.93305 | 13.59619 | 9869 ft | 284 kts | 205° |
| 2026-05-05 14:03 | 52.91489 | 13.58317 | 9874 ft | 283 kts | 205° |
| 2026-05-05 14:03 | 52.89681 | 13.57020 | 9876 ft | 283 kts | 205° |
| 2026-05-05 14:03 | 52.87871 | 13.55720 | 9876 ft | 283 kts | 205° |
| 2026-05-05 14:04 | 52.86065 | 13.54424 | 9876 ft | 283 kts | 205° |
| 2026-05-05 14:04 | 52.84252 | 13.53124 | 9876 ft | 283 kts | 205° |
| 2026-05-05 14:04 | 52.82473 | 13.51847 | 9877 ft | 283 kts | 205° |
| 2026-05-05 14:04 | 52.80662 | 13.50549 | 9876 ft | 283 kts | 205° |
| 2026-05-05 14:05 | 52.78856 | 13.49256 | 9877 ft | 283 kts | 205° |
| 2026-05-05 14:05 | 52.77046 | 13.47962 | 9838 ft | 282 kts | 205° |
| 2026-05-05 14:05 | 52.75253 | 13.46681 | 9409 ft | 280 kts | 205° |
| 2026-05-05 14:05 | 52.73464 | 13.45404 | 8963 ft | 279 kts | 205° |
| 2026-05-05 14:06 | 52.71682 | 13.44133 | 8555 ft | 277 kts | 205° |
| 2026-05-05 14:06 | 52.69917 | 13.42870 | 8144 ft | 275 kts | 205° |
| 2026-05-05 14:06 | 52.68187 | 13.41637 | 7744 ft | 274 kts | 205° |
| 2026-05-05 14:06 | 52.66422 | 13.40382 | 7342 ft | 272 kts | 205° |
| 2026-05-05 14:07 | 52.64708 | 13.39156 | 6965 ft | 271 kts | 205° |
| 2026-05-05 14:07 | 52.62987 | 13.37928 | 6858 ft | 270 kts | 205° |
| 2026-05-05 14:07 | 52.61255 | 13.36677 | 6867 ft | 271 kts | 205° |
| 2026-05-05 14:07 | 52.59578 | 13.35273 | 6865 ft | 270 kts | 213° |
| 2026-05-05 14:08 | 52.57996 | 13.33591 | 6867 ft | 270 kts | 215° |
| 2026-05-05 14:08 | 52.56428 | 13.31887 | 6865 ft | 269 kts | 215° |
| 2026-05-05 14:08 | 52.54878 | 13.30200 | 6864 ft | 270 kts | 215° |
| 2026-05-05 14:08 | 52.53319 | 13.28495 | 6677 ft | 267 kts | 215° |
| 2026-05-05 14:09 | 52.51772 | 13.26800 | 6410 ft | 268 kts | 215° |
| 2026-05-05 14:09 | 52.50219 | 13.25094 | 6156 ft | 269 kts | 215° |
| 2026-05-05 14:09 | 52.48666 | 13.23384 | 5900 ft | 268 kts | 215° |
| 2026-05-05 14:09 | 52.47115 | 13.21671 | 5641 ft | 267 kts | 215° |
| 2026-05-05 14:10 | 52.45573 | 13.19983 | 5390 ft | 265 kts | 215° |
| 2026-05-05 14:10 | 52.44053 | 13.18319 | 5137 ft | 264 kts | 215° |
| 2026-05-05 14:10 | 52.42546 | 13.16663 | 4898 ft | 258 kts | 215° |
| 2026-05-05 14:10 | 52.41060 | 13.15029 | 4638 ft | 256 kts | 215° |
| 2026-05-05 14:11 | 52.39602 | 13.13420 | 4369 ft | 246 kts | 215° |
| 2026-05-05 14:11 | 52.38206 | 13.11888 | 4122 ft | 239 kts | 214° |
| 2026-05-05 14:11 | 52.36868 | 13.10412 | 4004 ft | 225 kts | 216° |
| 2026-05-05 14:11 | 52.35613 | 13.09046 | 3992 ft | 207 kts | 215° |
| 2026-05-05 14:12 | 52.34473 | 13.07822 | 3999 ft | 192 kts | 215° |
| 2026-05-05 14:12 | 52.33359 | 13.06635 | 4012 ft | 190 kts | 214° |
| 2026-05-05 14:12 | 52.32119 | 13.05950 | 4003 ft | 193 kts | 181° |
| 2026-05-05 14:12 | 52.30861 | 13.06672 | 4004 ft | 195 kts | 145° |
| 2026-05-05 14:13 | 52.30050 | 13.08414 | 3991 ft | 197 kts | 108° |
| 2026-05-05 14:13 | 52.29791 | 13.10620 | 3997 ft | 197 kts | 97° |
| 2026-05-05 14:13 | 52.29644 | 13.12850 | 3999 ft | 197 kts | 96° |
| 2026-05-05 14:13 | 52.29508 | 13.15083 | 4002 ft | 197 kts | 95° |
| 2026-05-05 14:14 | 52.29414 | 13.17286 | 3994 ft | 197 kts | 85° |
| 2026-05-05 14:14 | 52.29783 | 13.19429 | 3847 ft | 196 kts | 67° |
| 2026-05-05 14:14 | 52.30294 | 13.21495 | 3617 ft | 195 kts | 67° |
| 2026-05-05 14:14 | 52.30793 | 13.23540 | 3366 ft | 191 kts | 67° |
| 2026-05-05 14:15 | 52.31277 | 13.25542 | 3125 ft | 187 kts | 67° |
| 2026-05-05 14:15 | 52.31745 | 13.27493 | 2887 ft | 179 kts | 66° |
| 2026-05-05 14:15 | 52.32183 | 13.29315 | 2644 ft | 170 kts | 67° |
| 2026-05-05 14:15 | 52.32610 | 13.31095 | 2420 ft | 167 kts | 67° |
| 2026-05-05 14:16 | 52.33028 | 13.32839 | 2188 ft | 159 kts | 67° |
| 2026-05-05 14:16 | 52.33414 | 13.34453 | 1985 ft | 147 kts | 66° |
| 2026-05-05 14:16 | 52.33777 | 13.35968 | 1794 ft | 141 kts | 66° |
| 2026-05-05 14:16 | 52.34140 | 13.37452 | 1609 ft | 140 kts | 64° |
| 2026-05-05 14:17 | 52.34499 | 13.38923 | 1422 ft | 139 kts | 66° |
| 2026-05-05 14:17 | 52.34840 | 13.40408 | 1232 ft | 140 kts | 66° |
| 2026-05-05 14:17 | 52.35179 | 13.41899 | 1053 ft | 140 kts | 67° |
| 2026-05-05 14:17 | 52.35533 | 13.43376 | 860 ft | 138 kts | 66° |
| 2026-05-05 14:18 | 52.35893 | 13.44829 | 670 ft | 137 kts | 68° |
| 2026-05-05 14:18 | 52.36241 | 13.46273 | 473 ft | 136 kts | 70° |
| 2026-05-05 14:18 | 52.36583 | 13.47710 | 293 ft | 134 kts | 70° |
| 2026-05-05 14:18 | 52.36914 | 13.49118 | 161 ft | 128 kts | 69° |
| 2026-05-05 14:19 | 52.37187 | 13.50270 | 155 ft | 83 kts | 68° |
| 2026-05-05 14:19 | 52.37307 | 13.50844 | 155 ft | 35 kts | 83° |
| 2026-05-05 14:19 | 52.37296 | 13.51104 | 155 ft | 17 kts | 98° |
| 2026-05-05 14:19 | 52.37284 | 13.51224 | 155 ft | 6 kts | 99° |
| 2026-05-05 14:20 | 52.37277 | 13.51293 | 155 ft | 6 kts | 101° |
| 2026-05-05 14:20 | 52.37257 | 13.51370 | 155 ft | 11 kts | 131° |
| 2026-05-05 14:20 | 52.37207 | 13.51414 | 155 ft | 7 kts | 157° |
| 2026-05-05 14:20 | 52.37138 | 13.51453 | 155 ft | 14 kts | 161° |
| 2026-05-05 14:21 | 52.37036 | 13.51431 | 155 ft | 17 kts | 237° |
| 2026-05-05 14:21 | 52.36995 | 13.51263 | 155 ft | 15 kts | 249° |
| 2026-05-05 14:21 | 52.36958 | 13.51105 | 155 ft | 15 kts | 249° |
| 2026-05-05 14:21 | 52.36922 | 13.50955 | 155 ft | 13 kts | 249° |
| 2026-05-05 14:22 | 52.36902 | 13.50870 | 155 ft | 7 kts | 249° |
| 2026-05-05 14:22 | 52.36888 | 13.50828 | 155 ft | 2 kts | 210° |
| 2026-05-05 14:22 | 52.36849 | 13.50840 | 155 ft | 8 kts | 159° |
| 2026-05-05 14:22 | 52.36825 | 13.50854 | 155 ft | 3 kts | 159° |
| 2026-05-05 14:23 | 52.36819 | 13.50858 | 155 ft | 0 kts | 159° |